sensor_id;sensor_type;location;lat;lon;timestamp;P1;durP1;ratioP1;P2;durP2;ratioP2
9346;SDS011;4712;50.698;7.164;2022-08-18T00:01:37;7.55;;;6.38;;
9346;SDS011;4712;50.698;7.164;2022-08-18T00:04:04;6.95;;;6.25;;
9346;SDS011;4712;50.698;7.164;2022-08-18T00:06:30;7.20;;;6.50;;
9346;SDS011;4712;50.698;7.164;2022-08-18T00:08:56;8.03;;;6.70;;
9346;SDS011;4712;50.698;7.164;2022-08-18T00:11:21;7.10;;;6.40;;
9346;SDS011;4712;50.698;7.164;2022-08-18T00:13:47;8.45;;;6.50;;
9346;SDS011;4712;50.698;7.164;2022-08-18T00:16:12;6.77;;;6.17;;
9346;SDS011;4712;50.698;7.164;2022-08-18T00:18:37;7.47;;;6.77;;
9346;SDS011;4712;50.698;7.164;2022-08-18T00:21:03;6.82;;;6.22;;
9346;SDS011;4712;50.698;7.164;2022-08-18T00:23:29;8.38;;;6.60;;
9346;SDS011;4712;50.698;7.164;2022-08-18T00:25:56;7.68;;;6.47;;
9346;SDS011;4712;50.698;7.164;2022-08-18T00:28:23;8.10;;;6.53;;
9346;SDS011;4712;50.698;7.164;2022-08-18T00:30:48;8.90;;;6.90;;
9346;SDS011;4712;50.698;7.164;2022-08-18T00:33:13;10.43;;;6.78;;
9346;SDS011;4712;50.698;7.164;2022-08-18T00:35:38;9.17;;;7.10;;
9346;SDS011;4712;50.698;7.164;2022-08-18T00:38:05;11.93;;;7.47;;
9346;SDS011;4712;50.698;7.164;2022-08-18T00:40:36;7.13;;;6.53;;
9346;SDS011;4712;50.698;7.164;2022-08-18T00:43:02;9.82;;;6.93;;
9346;SDS011;4712;50.698;7.164;2022-08-18T00:45:30;7.78;;;6.93;;
9346;SDS011;4712;50.698;7.164;2022-08-18T00:47:56;13.60;;;7.63;;
9346;SDS011;4712;50.698;7.164;2022-08-18T00:50:26;8.98;;;7.18;;
9346;SDS011;4712;50.698;7.164;2022-08-18T00:52:54;7.85;;;6.97;;
9346;SDS011;4712;50.698;7.164;2022-08-18T00:55:20;7.75;;;6.95;;
9346;SDS011;4712;50.698;7.164;2022-08-18T00:57:46;8.80;;;7.72;;
9346;SDS011;4712;50.698;7.164;2022-08-18T01:00:12;8.48;;;7.68;;
9346;SDS011;4712;50.698;7.164;2022-08-18T01:02:40;7.85;;;7.05;;
9346;SDS011;4712;50.698;7.164;2022-08-18T01:05:28;7.65;;;6.85;;
9346;SDS011;4712;50.698;7.164;2022-08-18T01:07:51;10.35;;;7.78;;
9346;SDS011;4712;50.698;7.164;2022-08-18T01:10:19;7.80;;;7.10;;
9346;SDS011;4712;50.698;7.164;2022-08-18T01:12:47;7.95;;;7.15;;
9346;SDS011;4712;50.698;7.164;2022-08-18T01:15:13;9.90;;;7.40;;
9346;SDS011;4712;50.698;7.164;2022-08-18T01:17:39;9.13;;;7.38;;
9346;SDS011;4712;50.698;7.164;2022-08-18T01:20:26;7.60;;;6.80;;
9346;SDS011;4712;50.698;7.164;2022-08-18T01:23:13;8.20;;;7.40;;
9346;SDS011;4712;50.698;7.164;2022-08-18T01:25:39;8.80;;;7.15;;
9346;SDS011;4712;50.698;7.164;2022-08-18T01:28:24;8.02;;;7.18;;
9346;SDS011;4712;50.698;7.164;2022-08-18T01:30:50;10.45;;;8.45;;
9346;SDS011;4712;50.698;7.164;2022-08-18T01:33:17;9.07;;;7.43;;
9346;SDS011;4712;50.698;7.164;2022-08-18T01:35:42;9.10;;;7.93;;
9346;SDS011;4712;50.698;7.164;2022-08-18T01:38:08;8.55;;;7.00;;
9346;SDS011;4712;50.698;7.164;2022-08-18T01:40:37;9.07;;;7.82;;
9346;SDS011;4712;50.698;7.164;2022-08-18T01:43:02;8.57;;;7.77;;
9346;SDS011;4712;50.698;7.164;2022-08-18T01:45:28;8.43;;;7.20;;
9346;SDS011;4712;50.698;7.164;2022-08-18T01:47:55;9.70;;;7.43;;
9346;SDS011;4712;50.698;7.164;2022-08-18T01:50:23;11.95;;;8.13;;
9346;SDS011;4712;50.698;7.164;2022-08-18T01:52:48;8.18;;;7.20;;
9346;SDS011;4712;50.698;7.164;2022-08-18T01:55:17;9.00;;;8.15;;
9346;SDS011;4712;50.698;7.164;2022-08-18T01:57:42;9.23;;;8.30;;
9346;SDS011;4712;50.698;7.164;2022-08-18T02:00:12;9.27;;;7.00;;
9346;SDS011;4712;50.698;7.164;2022-08-18T02:02:38;9.45;;;7.30;;
9346;SDS011;4712;50.698;7.164;2022-08-18T02:05:11;8.60;;;7.15;;
9346;SDS011;4712;50.698;7.164;2022-08-18T02:07:38;8.73;;;7.85;;
9346;SDS011;4712;50.698;7.164;2022-08-18T02:10:04;8.57;;;7.68;;
9346;SDS011;4712;50.698;7.164;2022-08-18T02:12:31;10.80;;;8.40;;
9346;SDS011;4712;50.698;7.164;2022-08-18T02:14:56;9.30;;;8.18;;
9346;SDS011;4712;50.698;7.164;2022-08-18T02:17:21;10.27;;;8.50;;
9346;SDS011;4712;50.698;7.164;2022-08-18T02:19:47;10.95;;;8.70;;
9346;SDS011;4712;50.698;7.164;2022-08-18T02:22:14;9.95;;;8.95;;
9346;SDS011;4712;50.698;7.164;2022-08-18T02:24:40;9.65;;;8.65;;
9346;SDS011;4712;50.698;7.164;2022-08-18T02:27:05;9.70;;;8.73;;
9346;SDS011;4712;50.698;7.164;2022-08-18T02:29:31;12.32;;;9.30;;
9346;SDS011;4712;50.698;7.164;2022-08-18T02:31:56;12.55;;;9.40;;
9346;SDS011;4712;50.698;7.164;2022-08-18T02:34:21;13.13;;;10.13;;
9346;SDS011;4712;50.698;7.164;2022-08-18T02:36:47;11.40;;;10.20;;
9346;SDS011;4712;50.698;7.164;2022-08-18T02:39:12;12.83;;;9.87;;
9346;SDS011;4712;50.698;7.164;2022-08-18T02:41:37;15.32;;;9.45;;
9346;SDS011;4712;50.698;7.164;2022-08-18T02:44:02;10.50;;;9.37;;
9346;SDS011;4712;50.698;7.164;2022-08-18T02:46:28;10.77;;;9.00;;
9346;SDS011;4712;50.698;7.164;2022-08-18T02:48:53;11.13;;;9.83;;
9346;SDS011;4712;50.698;7.164;2022-08-18T02:51:20;10.63;;;9.45;;
9346;SDS011;4712;50.698;7.164;2022-08-18T02:53:46;11.43;;;9.53;;
9346;SDS011;4712;50.698;7.164;2022-08-18T02:56:13;11.23;;;10.00;;
9346;SDS011;4712;50.698;7.164;2022-08-18T02:58:44;12.48;;;9.95;;
9346;SDS011;4712;50.698;7.164;2022-08-18T03:01:10;13.13;;;10.00;;
9346;SDS011;4712;50.698;7.164;2022-08-18T03:03:35;10.45;;;9.38;;
9346;SDS011;4712;50.698;7.164;2022-08-18T03:06:01;12.98;;;11.13;;
9346;SDS011;4712;50.698;7.164;2022-08-18T03:08:26;11.60;;;10.40;;
9346;SDS011;4712;50.698;7.164;2022-08-18T03:10:51;12.98;;;11.68;;
9346;SDS011;4712;50.698;7.164;2022-08-18T03:13:17;12.85;;;11.50;;
9346;SDS011;4712;50.698;7.164;2022-08-18T03:15:42;13.68;;;11.20;;
9346;SDS011;4712;50.698;7.164;2022-08-18T03:18:08;12.68;;;11.38;;
9346;SDS011;4712;50.698;7.164;2022-08-18T03:20:34;12.70;;;11.40;;
9346;SDS011;4712;50.698;7.164;2022-08-18T03:22:59;12.57;;;11.05;;
9346;SDS011;4712;50.698;7.164;2022-08-18T03:25:26;12.07;;;10.68;;
9346;SDS011;4712;50.698;7.164;2022-08-18T03:27:51;11.37;;;10.17;;
9346;SDS011;4712;50.698;7.164;2022-08-18T03:30:16;12.35;;;11.13;;
9346;SDS011;4712;50.698;7.164;2022-08-18T03:32:42;12.65;;;11.13;;
9346;SDS011;4712;50.698;7.164;2022-08-18T03:35:07;11.73;;;10.40;;
9346;SDS011;4712;50.698;7.164;2022-08-18T03:37:32;12.68;;;11.30;;
9346;SDS011;4712;50.698;7.164;2022-08-18T03:39:57;11.75;;;10.57;;
9346;SDS011;4712;50.698;7.164;2022-08-18T03:42:23;14.27;;;11.27;;
9346;SDS011;4712;50.698;7.164;2022-08-18T03:44:48;13.35;;;10.75;;
9346;SDS011;4712;50.698;7.164;2022-08-18T03:47:13;12.18;;;10.98;;
9346;SDS011;4712;50.698;7.164;2022-08-18T03:49:39;13.18;;;11.15;;
9346;SDS011;4712;50.698;7.164;2022-08-18T03:52:09;12.23;;;11.10;;
9346;SDS011;4712;50.698;7.164;2022-08-18T03:54:34;13.32;;;10.65;;
9346;SDS011;4712;50.698;7.164;2022-08-18T03:57:00;16.02;;;12.15;;
9346;SDS011;4712;50.698;7.164;2022-08-18T03:59:26;12.77;;;11.50;;
9346;SDS011;4712;50.698;7.164;2022-08-18T04:01:52;13.25;;;11.85;;
9346;SDS011;4712;50.698;7.164;2022-08-18T04:04:19;13.10;;;11.80;;
9346;SDS011;4712;50.698;7.164;2022-08-18T04:06:50;12.43;;;11.00;;
9346;SDS011;4712;50.698;7.164;2022-08-18T04:09:18;14.00;;;11.90;;
9346;SDS011;4712;50.698;7.164;2022-08-18T04:11:44;13.43;;;11.70;;
9346;SDS011;4712;50.698;7.164;2022-08-18T04:14:10;13.30;;;11.90;;
9346;SDS011;4712;50.698;7.164;2022-08-18T04:16:36;15.00;;;13.32;;
9346;SDS011;4712;50.698;7.164;2022-08-18T04:19:03;15.45;;;13.60;;
9346;SDS011;4712;50.698;7.164;2022-08-18T04:21:32;17.50;;;14.82;;
9346;SDS011;4712;50.698;7.164;2022-08-18T04:23:58;16.75;;;15.05;;
9346;SDS011;4712;50.698;7.164;2022-08-18T04:26:29;18.27;;;15.65;;
9346;SDS011;4712;50.698;7.164;2022-08-18T04:28:55;14.77;;;13.23;;
9346;SDS011;4712;50.698;7.164;2022-08-18T04:31:21;14.80;;;13.40;;
9346;SDS011;4712;50.698;7.164;2022-08-18T04:33:48;18.65;;;13.88;;
9346;SDS011;4712;50.698;7.164;2022-08-18T04:36:14;18.85;;;14.75;;
9346;SDS011;4712;50.698;7.164;2022-08-18T04:38:40;16.65;;;14.60;;
9346;SDS011;4712;50.698;7.164;2022-08-18T04:41:09;15.52;;;14.02;;
9346;SDS011;4712;50.698;7.164;2022-08-18T04:43:35;18.17;;;14.40;;
9346;SDS011;4712;50.698;7.164;2022-08-18T04:46:00;15.63;;;14.23;;
9346;SDS011;4712;50.698;7.164;2022-08-18T04:48:31;16.33;;;14.50;;
9346;SDS011;4712;50.698;7.164;2022-08-18T04:51:32;16.80;;;14.85;;
9346;SDS011;4712;50.698;7.164;2022-08-18T04:53:51;15.48;;;13.38;;
9346;SDS011;4712;50.698;7.164;2022-08-18T04:56:17;18.35;;;13.40;;
9346;SDS011;4712;50.698;7.164;2022-08-18T04:58:50;14.80;;;13.30;;
9346;SDS011;4712;50.698;7.164;2022-08-18T05:01:16;17.33;;;15.48;;
9346;SDS011;4712;50.698;7.164;2022-08-18T05:03:42;17.73;;;14.77;;
9346;SDS011;4712;50.698;7.164;2022-08-18T05:06:08;15.48;;;13.57;;
9346;SDS011;4712;50.698;7.164;2022-08-18T05:08:34;15.00;;;13.40;;
9346;SDS011;4712;50.698;7.164;2022-08-18T05:10:59;15.70;;;14.20;;
9346;SDS011;4712;50.698;7.164;2022-08-18T05:13:24;16.87;;;15.23;;
9346;SDS011;4712;50.698;7.164;2022-08-18T05:15:54;16.50;;;14.80;;
9346;SDS011;4712;50.698;7.164;2022-08-18T05:18:20;16.10;;;14.48;;
9346;SDS011;4712;50.698;7.164;2022-08-18T05:20:48;19.65;;;16.10;;
9346;SDS011;4712;50.698;7.164;2022-08-18T05:23:13;20.95;;;16.15;;
9346;SDS011;4712;50.698;7.164;2022-08-18T05:25:39;19.17;;;16.60;;
9346;SDS011;4712;50.698;7.164;2022-08-18T05:28:04;17.73;;;15.10;;
9346;SDS011;4712;50.698;7.164;2022-08-18T05:30:30;21.17;;;15.73;;
9346;SDS011;4712;50.698;7.164;2022-08-18T05:32:55;20.02;;;16.08;;
9346;SDS011;4712;50.698;7.164;2022-08-18T05:35:22;18.38;;;16.45;;
9346;SDS011;4712;50.698;7.164;2022-08-18T05:37:52;17.63;;;15.25;;
9346;SDS011;4712;50.698;7.164;2022-08-18T05:40:18;16.02;;;14.35;;
9346;SDS011;4712;50.698;7.164;2022-08-18T05:42:45;16.00;;;14.40;;
9346;SDS011;4712;50.698;7.164;2022-08-18T05:45:15;17.52;;;14.63;;
9346;SDS011;4712;50.698;7.164;2022-08-18T05:47:40;17.10;;;15.30;;
9346;SDS011;4712;50.698;7.164;2022-08-18T05:50:07;16.67;;;14.95;;
9346;SDS011;4712;50.698;7.164;2022-08-18T05:52:37;18.77;;;16.77;;
9346;SDS011;4712;50.698;7.164;2022-08-18T05:55:05;21.52;;;17.95;;
9346;SDS011;4712;50.698;7.164;2022-08-18T05:57:51;20.35;;;17.48;;
9346;SDS011;4712;50.698;7.164;2022-08-18T06:00:18;19.02;;;16.77;;
9346;SDS011;4712;50.698;7.164;2022-08-18T06:02:59;20.83;;;18.58;;
9346;SDS011;4712;50.698;7.164;2022-08-18T06:05:27;24.42;;;21.83;;
9346;SDS011;4712;50.698;7.164;2022-08-18T06:08:12;30.77;;;24.17;;
9346;SDS011;4712;50.698;7.164;2022-08-18T06:10:45;30.17;;;24.63;;
9346;SDS011;4712;50.698;7.164;2022-08-18T06:13:11;35.03;;;26.30;;
9346;SDS011;4712;50.698;7.164;2022-08-18T06:18:23;33.13;;;24.98;;
9346;SDS011;4712;50.698;7.164;2022-08-18T06:21:04;39.60;;;30.23;;
9346;SDS011;4712;50.698;7.164;2022-08-18T06:23:34;44.97;;;31.40;;
9346;SDS011;4712;50.698;7.164;2022-08-18T06:29:14;45.05;;;32.90;;
9346;SDS011;4712;50.698;7.164;2022-08-18T06:37:18;47.15;;;33.28;;
9346;SDS011;4712;50.698;7.164;2022-08-18T06:39:45;47.60;;;32.83;;
9346;SDS011;4712;50.698;7.164;2022-08-18T06:42:10;44.75;;;32.63;;
9346;SDS011;4712;50.698;7.164;2022-08-18T06:44:41;42.23;;;30.80;;
9346;SDS011;4712;50.698;7.164;2022-08-18T06:49:43;38.00;;;28.80;;
9346;SDS011;4712;50.698;7.164;2022-08-18T06:55:06;31.40;;;24.52;;
9346;SDS011;4712;50.698;7.164;2022-08-18T06:57:34;33.05;;;27.80;;
9346;SDS011;4712;50.698;7.164;2022-08-18T07:00:05;34.28;;;27.80;;
9346;SDS011;4712;50.698;7.164;2022-08-18T07:02:42;38.13;;;29.30;;
9346;SDS011;4712;50.698;7.164;2022-08-18T07:07:57;51.75;;;31.92;;
9346;SDS011;4712;50.698;7.164;2022-08-18T07:10:33;46.38;;;33.00;;
9346;SDS011;4712;50.698;7.164;2022-08-18T07:13:36;53.97;;;34.58;;
9346;SDS011;4712;50.698;7.164;2022-08-18T07:15:50;53.33;;;33.60;;
9346;SDS011;4712;50.698;7.164;2022-08-18T07:18:20;57.17;;;35.40;;
9346;SDS011;4712;50.698;7.164;2022-08-18T07:20:47;72.45;;;38.90;;
9346;SDS011;4712;50.698;7.164;2022-08-18T07:23:46;65.22;;;39.45;;
9346;SDS011;4712;50.698;7.164;2022-08-18T07:26:15;75.88;;;40.05;;
9346;SDS011;4712;50.698;7.164;2022-08-18T07:28:48;78.10;;;41.97;;
9346;SDS011;4712;50.698;7.164;2022-08-18T07:33:52;75.85;;;41.60;;
9346;SDS011;4712;50.698;7.164;2022-08-18T07:36:19;74.65;;;41.33;;
9346;SDS011;4712;50.698;7.164;2022-08-18T07:38:49;72.85;;;42.38;;
9346;SDS011;4712;50.698;7.164;2022-08-18T07:41:18;78.20;;;41.80;;
9346;SDS011;4712;50.698;7.164;2022-08-18T07:46:41;73.80;;;41.30;;
9346;SDS011;4712;50.698;7.164;2022-08-18T07:49:09;84.07;;;41.92;;
9346;SDS011;4712;50.698;7.164;2022-08-18T07:59:34;79.80;;;44.30;;
9346;SDS011;4712;50.698;7.164;2022-08-18T08:02:24;79.30;;;44.85;;
9346;SDS011;4712;50.698;7.164;2022-08-18T08:07:25;79.85;;;41.80;;
9346;SDS011;4712;50.698;7.164;2022-08-18T08:10:13;82.50;;;45.63;;
9346;SDS011;4712;50.698;7.164;2022-08-18T08:12:57;72.80;;;40.75;;
9346;SDS011;4712;50.698;7.164;2022-08-18T08:20:29;69.68;;;37.42;;
9346;SDS011;4712;50.698;7.164;2022-08-18T08:30:24;71.60;;;37.97;;
9346;SDS011;4712;50.698;7.164;2022-08-18T08:35:47;70.55;;;38.42;;
9346;SDS011;4712;50.698;7.164;2022-08-18T08:38:15;72.82;;;39.17;;
9346;SDS011;4712;50.698;7.164;2022-08-18T08:43:16;66.53;;;38.50;;
9346;SDS011;4712;50.698;7.164;2022-08-18T08:45:56;68.90;;;39.58;;
9346;SDS011;4712;50.698;7.164;2022-08-18T08:48:26;63.85;;;37.58;;
9346;SDS011;4712;50.698;7.164;2022-08-18T08:50:54;68.07;;;37.55;;
9346;SDS011;4712;50.698;7.164;2022-08-18T08:53:29;68.63;;;39.15;;
9346;SDS011;4712;50.698;7.164;2022-08-18T08:55:56;65.38;;;37.65;;
9346;SDS011;4712;50.698;7.164;2022-08-18T08:58:24;65.63;;;36.83;;
9346;SDS011;4712;50.698;7.164;2022-08-18T09:00:50;63.20;;;36.22;;
9346;SDS011;4712;50.698;7.164;2022-08-18T09:05:50;60.80;;;34.83;;
9346;SDS011;4712;50.698;7.164;2022-08-18T09:10:49;59.25;;;35.60;;
9346;SDS011;4712;50.698;7.164;2022-08-18T09:15:51;69.00;;;38.58;;
9346;SDS011;4712;50.698;7.164;2022-08-18T09:23:47;58.53;;;35.42;;
9346;SDS011;4712;50.698;7.164;2022-08-18T09:28:54;51.53;;;34.63;;
9346;SDS011;4712;50.698;7.164;2022-08-18T09:31:22;51.58;;;36.20;;
9346;SDS011;4712;50.698;7.164;2022-08-18T09:33:52;55.47;;;33.63;;
9346;SDS011;4712;50.698;7.164;2022-08-18T09:36:29;50.42;;;34.10;;
9346;SDS011;4712;50.698;7.164;2022-08-18T09:39:08;53.75;;;35.80;;
9346;SDS011;4712;50.698;7.164;2022-08-18T09:41:57;52.85;;;34.47;;
9346;SDS011;4712;50.698;7.164;2022-08-18T09:47:07;41.45;;;29.73;;
9346;SDS011;4712;50.698;7.164;2022-08-18T09:49:43;52.03;;;32.53;;
9346;SDS011;4712;50.698;7.164;2022-08-18T09:54:58;47.88;;;32.50;;
9346;SDS011;4712;50.698;7.164;2022-08-18T09:59:53;51.28;;;34.15;;
9346;SDS011;4712;50.698;7.164;2022-08-18T10:10:13;42.58;;;30.23;;
9346;SDS011;4712;50.698;7.164;2022-08-18T10:15:19;36.38;;;28.00;;
9346;SDS011;4712;50.698;7.164;2022-08-18T10:23:08;40.35;;;30.52;;
9346;SDS011;4712;50.698;7.164;2022-08-18T10:25:37;39.67;;;29.02;;
9346;SDS011;4712;50.698;7.164;2022-08-18T10:28:04;37.38;;;27.67;;
9346;SDS011;4712;50.698;7.164;2022-08-18T10:33:02;34.08;;;27.55;;
9346;SDS011;4712;50.698;7.164;2022-08-18T10:38:00;38.10;;;26.42;;
9346;SDS011;4712;50.698;7.164;2022-08-18T10:40:26;40.50;;;29.95;;
9346;SDS011;4712;50.698;7.164;2022-08-18T10:45:36;34.97;;;26.60;;
9346;SDS011;4712;50.698;7.164;2022-08-18T10:48:10;33.15;;;28.20;;
9346;SDS011;4712;50.698;7.164;2022-08-18T10:50:49;37.13;;;27.98;;
9346;SDS011;4712;50.698;7.164;2022-08-18T10:53:19;32.75;;;27.08;;
9346;SDS011;4712;50.698;7.164;2022-08-18T10:55:59;37.53;;;28.77;;
9346;SDS011;4712;50.698;7.164;2022-08-18T11:03:55;34.13;;;26.80;;
9346;SDS011;4712;50.698;7.164;2022-08-18T11:06:23;30.10;;;24.65;;
9346;SDS011;4712;50.698;7.164;2022-08-18T11:08:50;31.42;;;24.85;;
9346;SDS011;4712;50.698;7.164;2022-08-18T11:11:19;30.00;;;23.55;;
9346;SDS011;4712;50.698;7.164;2022-08-18T11:17:19;27.75;;;24.42;;
9346;SDS011;4712;50.698;7.164;2022-08-18T11:19:12;32.55;;;25.30;;
9346;SDS011;4712;50.698;7.164;2022-08-18T11:21:45;34.00;;;27.02;;
9346;SDS011;4712;50.698;7.164;2022-08-18T11:26:39;29.73;;;24.47;;
9346;SDS011;4712;50.698;7.164;2022-08-18T11:29:18;30.23;;;26.70;;
9346;SDS011;4712;50.698;7.164;2022-08-18T11:31:44;33.70;;;25.13;;
9346;SDS011;4712;50.698;7.164;2022-08-18T11:34:12;30.70;;;27.30;;
9346;SDS011;4712;50.698;7.164;2022-08-18T11:36:39;28.65;;;25.52;;
9346;SDS011;4712;50.698;7.164;2022-08-18T11:39:07;35.83;;;27.10;;
9346;SDS011;4712;50.698;7.164;2022-08-18T11:41:33;32.08;;;27.52;;
9346;SDS011;4712;50.698;7.164;2022-08-18T11:43:58;30.37;;;26.50;;
9346;SDS011;4712;50.698;7.164;2022-08-18T11:46:28;29.85;;;25.30;;
9346;SDS011;4712;50.698;7.164;2022-08-18T11:48:53;28.05;;;25.17;;
9346;SDS011;4712;50.698;7.164;2022-08-18T11:51:21;31.37;;;25.87;;
9346;SDS011;4712;50.698;7.164;2022-08-18T12:01:30;30.45;;;25.25;;
9346;SDS011;4712;50.698;7.164;2022-08-18T12:06:37;29.08;;;24.02;;
9346;SDS011;4712;50.698;7.164;2022-08-18T12:11:31;32.40;;;25.50;;
9346;SDS011;4712;50.698;7.164;2022-08-18T12:13:59;26.98;;;23.75;;
9346;SDS011;4712;50.698;7.164;2022-08-18T12:16:38;27.67;;;23.95;;
9346;SDS011;4712;50.698;7.164;2022-08-18T12:19:05;24.20;;;21.70;;
9346;SDS011;4712;50.698;7.164;2022-08-18T12:21:31;26.90;;;23.80;;
9346;SDS011;4712;50.698;7.164;2022-08-18T12:23:56;30.90;;;23.63;;
9346;SDS011;4712;50.698;7.164;2022-08-18T12:26:21;24.97;;;22.37;;
9346;SDS011;4712;50.698;7.164;2022-08-18T12:28:46;27.17;;;23.93;;
9346;SDS011;4712;50.698;7.164;2022-08-18T12:31:12;27.53;;;23.27;;
9346;SDS011;4712;50.698;7.164;2022-08-18T12:33:37;25.47;;;20.10;;
9346;SDS011;4712;50.698;7.164;2022-08-18T12:36:03;27.23;;;22.67;;
9346;SDS011;4712;50.698;7.164;2022-08-18T12:38:28;22.70;;;20.30;;
9346;SDS011;4712;50.698;7.164;2022-08-18T12:40:54;23.80;;;20.33;;
9346;SDS011;4712;50.698;7.164;2022-08-18T12:43:19;21.80;;;19.48;;
9346;SDS011;4712;50.698;7.164;2022-08-18T12:45:44;22.67;;;20.42;;
9346;SDS011;4712;50.698;7.164;2022-08-18T12:48:10;23.85;;;20.63;;
9346;SDS011;4712;50.698;7.164;2022-08-18T12:50:36;22.85;;;20.05;;
9346;SDS011;4712;50.698;7.164;2022-08-18T12:53:01;19.33;;;17.40;;
9346;SDS011;4712;50.698;7.164;2022-08-18T12:55:27;21.33;;;19.13;;
9346;SDS011;4712;50.698;7.164;2022-08-18T12:57:53;22.92;;;19.92;;
9346;SDS011;4712;50.698;7.164;2022-08-18T13:00:19;19.98;;;17.55;;
9346;SDS011;4712;50.698;7.164;2022-08-18T13:02:45;19.75;;;17.75;;
9346;SDS011;4712;50.698;7.164;2022-08-18T13:05:10;20.13;;;18.03;;
9346;SDS011;4712;50.698;7.164;2022-08-18T13:07:35;24.35;;;19.67;;
9346;SDS011;4712;50.698;7.164;2022-08-18T13:10:00;25.25;;;20.73;;
9346;SDS011;4712;50.698;7.164;2022-08-18T13:12:25;23.20;;;20.67;;
9346;SDS011;4712;50.698;7.164;2022-08-18T13:14:51;23.85;;;19.77;;
9346;SDS011;4712;50.698;7.164;2022-08-18T13:17:19;22.77;;;18.55;;
9346;SDS011;4712;50.698;7.164;2022-08-18T13:19:44;23.02;;;20.73;;
9346;SDS011;4712;50.698;7.164;2022-08-18T13:22:09;19.63;;;17.57;;
9346;SDS011;4712;50.698;7.164;2022-08-18T13:24:36;22.48;;;16.20;;
9346;SDS011;4712;50.698;7.164;2022-08-18T13:27:01;19.77;;;15.00;;
9346;SDS011;4712;50.698;7.164;2022-08-18T13:29:26;21.23;;;16.88;;
9346;SDS011;4712;50.698;7.164;2022-08-18T13:31:52;19.35;;;17.45;;
9346;SDS011;4712;50.698;7.164;2022-08-18T13:34:21;20.58;;;17.40;;
9346;SDS011;4712;50.698;7.164;2022-08-18T13:36:47;21.10;;;17.73;;
9346;SDS011;4712;50.698;7.164;2022-08-18T13:39:16;20.67;;;17.93;;
9346;SDS011;4712;50.698;7.164;2022-08-18T13:41:41;22.67;;;18.67;;
9346;SDS011;4712;50.698;7.164;2022-08-18T13:44:07;18.23;;;16.23;;
9346;SDS011;4712;50.698;7.164;2022-08-18T13:46:33;18.30;;;16.38;;
9346;SDS011;4712;50.698;7.164;2022-08-18T13:48:58;20.15;;;16.67;;
9346;SDS011;4712;50.698;7.164;2022-08-18T13:51:26;18.25;;;15.90;;
9346;SDS011;4712;50.698;7.164;2022-08-18T13:53:51;16.17;;;14.43;;
9346;SDS011;4712;50.698;7.164;2022-08-18T13:56:16;23.53;;;15.77;;
9346;SDS011;4712;50.698;7.164;2022-08-18T13:58:44;17.17;;;14.95;;
9346;SDS011;4712;50.698;7.164;2022-08-18T14:01:09;20.73;;;15.00;;
9346;SDS011;4712;50.698;7.164;2022-08-18T14:03:36;19.75;;;16.77;;
9346;SDS011;4712;50.698;7.164;2022-08-18T14:06:03;16.58;;;14.88;;
9346;SDS011;4712;50.698;7.164;2022-08-18T14:08:29;19.20;;;13.50;;
9346;SDS011;4712;50.698;7.164;2022-08-18T14:10:56;17.98;;;15.25;;
9346;SDS011;4712;50.698;7.164;2022-08-18T14:13:21;16.35;;;12.45;;
9346;SDS011;4712;50.698;7.164;2022-08-18T14:15:47;18.00;;;14.27;;
9346;SDS011;4712;50.698;7.164;2022-08-18T14:18:12;14.95;;;13.48;;
9346;SDS011;4712;50.698;7.164;2022-08-18T14:20:37;15.45;;;13.85;;
9346;SDS011;4712;50.698;7.164;2022-08-18T14:23:21;17.63;;;13.75;;
9346;SDS011;4712;50.698;7.164;2022-08-18T14:26:05;18.40;;;14.00;;
9346;SDS011;4712;50.698;7.164;2022-08-18T14:28:49;18.23;;;14.05;;
9346;SDS011;4712;50.698;7.164;2022-08-18T14:31:14;17.05;;;15.27;;
9346;SDS011;4712;50.698;7.164;2022-08-18T14:33:40;17.67;;;14.70;;
9346;SDS011;4712;50.698;7.164;2022-08-18T14:36:05;19.27;;;14.68;;
9346;SDS011;4712;50.698;7.164;2022-08-18T14:38:31;15.95;;;13.95;;
9346;SDS011;4712;50.698;7.164;2022-08-18T14:40:57;19.50;;;15.60;;
9346;SDS011;4712;50.698;7.164;2022-08-18T14:43:24;18.02;;;15.45;;
9346;SDS011;4712;50.698;7.164;2022-08-18T14:45:49;17.80;;;15.33;;
9346;SDS011;4712;50.698;7.164;2022-08-18T14:48:16;24.85;;;16.20;;
9346;SDS011;4712;50.698;7.164;2022-08-18T14:50:44;18.65;;;15.23;;
9346;SDS011;4712;50.698;7.164;2022-08-18T14:53:09;18.42;;;15.68;;
9346;SDS011;4712;50.698;7.164;2022-08-18T14:55:37;19.15;;;17.25;;
9346;SDS011;4712;50.698;7.164;2022-08-18T14:58:02;19.40;;;17.50;;
9346;SDS011;4712;50.698;7.164;2022-08-18T15:00:28;22.48;;;15.70;;
9346;SDS011;4712;50.698;7.164;2022-08-18T15:02:53;20.80;;;15.73;;
9346;SDS011;4712;50.698;7.164;2022-08-18T15:05:18;19.63;;;16.83;;
9346;SDS011;4712;50.698;7.164;2022-08-18T15:07:43;17.40;;;15.43;;
9346;SDS011;4712;50.698;7.164;2022-08-18T15:10:10;18.00;;;15.90;;
9346;SDS011;4712;50.698;7.164;2022-08-18T15:12:36;17.13;;;15.00;;
9346;SDS011;4712;50.698;7.164;2022-08-18T15:15:03;16.55;;;14.93;;
9346;SDS011;4712;50.698;7.164;2022-08-18T15:17:28;18.73;;;15.63;;
9346;SDS011;4712;50.698;7.164;2022-08-18T15:19:53;15.77;;;14.25;;
9346;SDS011;4712;50.698;7.164;2022-08-18T15:22:19;19.80;;;15.50;;
9346;SDS011;4712;50.698;7.164;2022-08-18T15:25:03;17.27;;;13.50;;
9346;SDS011;4712;50.698;7.164;2022-08-18T15:27:47;15.02;;;13.65;;
9346;SDS011;4712;50.698;7.164;2022-08-18T15:30:13;16.10;;;13.40;;
9346;SDS011;4712;50.698;7.164;2022-08-18T15:32:40;17.30;;;14.55;;
9346;SDS011;4712;50.698;7.164;2022-08-18T15:35:05;15.10;;;13.60;;
9346;SDS011;4712;50.698;7.164;2022-08-18T15:37:32;17.10;;;14.57;;
9346;SDS011;4712;50.698;7.164;2022-08-18T15:39:59;15.63;;;12.38;;
9346;SDS011;4712;50.698;7.164;2022-08-18T15:42:25;13.98;;;11.73;;
9346;SDS011;4712;50.698;7.164;2022-08-18T15:44:50;15.67;;;11.37;;
9346;SDS011;4712;50.698;7.164;2022-08-18T15:47:17;18.92;;;10.90;;
9346;SDS011;4712;50.698;7.164;2022-08-18T15:49:42;19.30;;;11.27;;
9346;SDS011;4712;50.698;7.164;2022-08-18T15:52:10;13.40;;;10.07;;
9346;SDS011;4712;50.698;7.164;2022-08-18T15:54:35;16.63;;;10.50;;
9346;SDS011;4712;50.698;7.164;2022-08-18T15:57:00;12.43;;;10.40;;
9346;SDS011;4712;50.698;7.164;2022-08-18T15:59:26;10.80;;;9.40;;
9346;SDS011;4712;50.698;7.164;2022-08-18T16:01:51;11.98;;;8.75;;
9346;SDS011;4712;50.698;7.164;2022-08-18T16:04:17;11.90;;;8.80;;
9346;SDS011;4712;50.698;7.164;2022-08-18T16:06:42;10.27;;;8.30;;
9346;SDS011;4712;50.698;7.164;2022-08-18T16:09:11;9.15;;;8.25;;
9346;SDS011;4712;50.698;7.164;2022-08-18T16:11:36;12.67;;;7.57;;
9346;SDS011;4712;50.698;7.164;2022-08-18T16:14:02;13.43;;;7.10;;
9346;SDS011;4712;50.698;7.164;2022-08-18T16:16:27;9.90;;;6.80;;
9346;SDS011;4712;50.698;7.164;2022-08-18T16:18:52;10.45;;;6.85;;
9346;SDS011;4712;50.698;7.164;2022-08-18T16:21:20;8.17;;;7.00;;
9346;SDS011;4712;50.698;7.164;2022-08-18T16:23:47;8.75;;;6.95;;
9346;SDS011;4712;50.698;7.164;2022-08-18T16:26:12;6.65;;;5.85;;
9346;SDS011;4712;50.698;7.164;2022-08-18T16:28:39;6.70;;;6.00;;
9346;SDS011;4712;50.698;7.164;2022-08-18T16:31:04;6.75;;;6.00;;
9346;SDS011;4712;50.698;7.164;2022-08-18T16:33:30;8.65;;;5.85;;
9346;SDS011;4712;50.698;7.164;2022-08-18T16:35:55;7.57;;;5.07;;
9346;SDS011;4712;50.698;7.164;2022-08-18T16:38:20;7.70;;;5.90;;
9346;SDS011;4712;50.698;7.164;2022-08-18T16:40:46;10.18;;;5.20;;
9346;SDS011;4712;50.698;7.164;2022-08-18T16:43:12;7.33;;;5.30;;
9346;SDS011;4712;50.698;7.164;2022-08-18T16:45:39;11.38;;;5.65;;
9346;SDS011;4712;50.698;7.164;2022-08-18T16:48:06;9.40;;;5.50;;
9346;SDS011;4712;50.698;7.164;2022-08-18T16:50:32;5.88;;;5.28;;
9346;SDS011;4712;50.698;7.164;2022-08-18T16:52:57;7.35;;;5.28;;
9346;SDS011;4712;50.698;7.164;2022-08-18T16:55:23;6.70;;;4.72;;
9346;SDS011;4712;50.698;7.164;2022-08-18T16:57:48;5.93;;;5.30;;
9346;SDS011;4712;50.698;7.164;2022-08-18T17:00:32;7.15;;;4.88;;
9346;SDS011;4712;50.698;7.164;2022-08-18T17:03:16;6.10;;;5.50;;